Pahoa, HI (96778)

10:15 PM HST on March 26, 2017 (GMT -1000)
Leilani Estates | | Change Station

Elev 768 ft 19.47 °N, 154.92 °W | Updated 7 seconds ago

Partly Cloudy
Partly Cloudy
66.5 °F
Feels Like 66.5 °F
N
0.0
Wind Variable Wind from NNW

Today
High -- | Low -- °F
--% Chance of Precip.
Yesterday
High -- | Low -- °F
Precip. -- in
Pressure 30.20 in
Visibility 10.0 miles
Clouds Few 2900 ft
Scattered Clouds 4000 ft
Mostly Cloudy 6000 ft
Dew Point 66 °F
Humidity 98%
Rainfall 0.05 in
Snow Depth Not available.
6:18 AM 6:32 PM
Waning Crescent, 1% visible
METAR PHTO 270753Z AUTO 25005KT 10SM FEW029 SCT040 BKN060 22/18 A3020 RMK AO2 SLP225 T02220183 TSNO
Pressure 30.20 in
Visibility 10.0 miles
Clouds Few 2900 ft
Scattered Clouds 4000 ft
Mostly Cloudy 6000 ft
Dew Point 66 °F
Humidity 98%
Rainfall 0.05 in
Snow Depth Not available.
6:18 AM 6:32 PM
Waning Crescent, 1% visible
METAR PHTO 270753Z AUTO 25005KT 10SM FEW029 SCT040 BKN060 22/18 A3020 RMK AO2 SLP225 T02220183 TSNO

Get Severe Weather Alerts

Thanks for signing up!

Be on the lookout for a verification email in your inbox.

You'll start receiving the daily forecast at 8 AM.

×

10-Day Weather Forecast

Almanac

Astronomy

Mar. 26, 2017 Rise Set
Actual Time
Civil Twilight
Nautical Twilight
Astronomical Twilight
Moon
Length of Visible Light
Length of Day
Tomorrow will be .
, % of the Moon is Illuminated

Today's Extremes

State Highs State Lows

Community

WunderPhotos

Upload Photos

1,962,540 photos uploaded!

WunderBlog® & News

Nearby

Air Quality

  Air Quality AQ Index Pollutant
Not available.

Snow Depth

Station Depth Elevation

Earthquake Activity

City Distance Mag. Time & Date
Minimum magnitude displayed is 2.5.

Earthquake Activity

City Distance Mag. Time & Date
Minimum magnitude displayed is 2.5.

Coastal Water Temperatures

Place Temperature

Stations

Nearby Weather Stations

Station Location Temp. Windchill Dew Point Humidity Wind Precip. Elev Updated Type
                   

Watches & Warnings

There are currently no watches in effect.